Time;durP1;ratioP1;P1;durP2;ratioP2;P2;SDS_P1;SDS_P2;PMS_P1;PMS_P2;Temp;Humidity;BMP_temperature;BMP_pressure;BME280_temperature;BME280_humidity;BME280_pressure;Samples;Min_cycle;Max_cycle;Signal;HPM_P1;HPM_P2
2022/10/03 00:03:11;;;;;;;19.10;16.30;;;;;;;17.87;65.20;99539.69;7005155;28;20364;-78
2022/10/03 00:06:42;;;;;;;16.80;15.10;;;;;;;17.55;65.80;99552.75;7004974;28;20346;-78
2022/10/03 00:10:18;;;;;;;16.13;14.43;;;;;;;17.24;65.97;99558.41;7003208;28;20236;-78
2022/10/03 00:13:45;;;;;;;15.83;14.23;;;;;;;17.40;65.75;99556.97;7004985;28;20196;-78
2022/10/03 00:17:12;;;;;;;17.80;15.90;;;;;;;17.58;65.15;99567.81;7004892;28;20283;-78
2022/10/03 00:20:46;;;;;;;18.03;16.13;;;;;;;17.64;64.70;99573.16;7004788;28;20256;-78
2022/10/03 00:24:16;;;;;;;17.63;15.73;;;;;;;17.58;65.16;99589.63;7005791;28;20217;-78
2022/10/03 00:27:41;;;;;;;19.90;17.03;;;;;;;17.50;65.10;99598.13;7005128;28;20299;-78
2022/10/03 00:31:10;;;;;;;21.30;16.03;;;;;;;17.60;65.15;99591.06;7005896;28;20673;-79
2022/10/03 00:34:41;;;;;;;20.00;15.90;;;;;;;17.49;65.25;99600.03;7005799;28;20194;-78
2022/10/03 00:38:31;;;;;;;19.67;16.93;;;;;;;17.38;65.80;99594.50;7004513;28;20291;-78
2022/10/03 00:42:25;;;;;;;18.17;16.30;;;;;;;17.39;65.23;99588.03;7005284;28;20555;-79
2022/10/03 00:46:09;;;;;;;23.03;17.87;;;;;;;17.34;65.08;99568.75;7004895;28;20729;-78
2022/10/03 00:50:13;;;;;;;21.63;16.93;;;;;;;17.43;65.11;99600.09;7003658;28;20228;-78
2022/10/03 00:53:46;;;;;;;22.10;17.53;;;;;;;17.49;65.07;99605.50;7004253;28;20207;-78
2022/10/03 00:57:28;;;;;;;19.87;16.60;;;;;;;17.38;65.42;99602.69;7004218;28;20257;-79
2022/10/03 01:00:51;;;;;;;20.20;16.60;;;;;;;17.39;65.15;99616.09;7003894;28;20195;-78
2022/10/03 01:04:48;;;;;;;18.30;15.87;;;;;;;17.53;64.80;99612.16;7004682;28;20571;-79
2022/10/03 01:08:57;;;;;;;18.77;15.47;;;;;;;17.44;64.82;99604.50;6987858;28;20287;-78
2022/10/03 01:12:30;;;;;;;19.37;15.10;;;;;;;17.24;65.04;99602.00;6918430;28;20234;-78
2022/10/03 01:15:57;;;;;;;18.27;15.23;;;;;;;17.29;65.04;99601.31;6934004;28;20297;-78
2022/10/03 01:19:31;;;;;;;18.47;14.70;;;;;;;17.40;64.95;99606.84;7003815;28;20312;-78
2022/10/03 01:23:23;;;;;;;20.03;15.43;;;;;;;17.49;64.79;99605.50;7004152;28;20196;-78
2022/10/03 01:26:53;;;;;;;19.10;15.70;;;;;;;17.31;64.80;99574.66;7003935;28;20206;-78
2022/10/03 01:30:24;;;;;;;24.10;16.40;;;;;;;17.43;64.91;99606.41;7003410;28;20232;-78
2022/10/03 01:33:51;;;;;;;19.67;16.27;;;;;;;17.43;64.68;99590.03;7004205;28;20200;-79
2022/10/03 01:37:17;;;;;;;23.00;17.43;;;;;;;17.47;64.54;99604.91;7004281;28;20571;-78
2022/10/03 01:40:41;;;;;;;24.23;17.33;;;;;;;17.36;65.25;99607.50;7003548;28;20277;-78
2022/10/03 01:44:11;;;;;;;23.13;17.50;;;;;;;17.49;64.88;99596.47;6996452;28;20207;-78
2022/10/03 01:47:38;;;;;;;22.60;17.03;;;;;;;17.43;64.96;99616.47;6975279;28;20217;-79
2022/10/03 01:51:03;;;;;;;21.47;16.47;;;;;;;17.64;64.30;99621.44;6975915;28;20210;-79
2022/10/03 01:54:45;;;;;;;24.43;16.77;;;;;;;17.55;64.23;99585.47;6975423;28;20298;-78
2022/10/03 01:58:11;;;;;;;22.87;17.50;;;;;;;17.66;64.42;99617.44;6863199;28;20250;-79
2022/10/03 02:01:39;;;;;;;22.20;16.37;;;;;;;17.61;64.44;99625.47;6863959;28;20209;-78
2022/10/03 02:05:07;;;;;;;22.57;17.27;;;;;;;17.55;64.49;99637.28;6863738;28;20285;-78
2022/10/03 02:08:36;;;;;;;21.77;16.67;;;;;;;17.08;64.76;99593.59;6862467;28;20744;-78
2022/10/03 02:12:04;;;;;;;28.00;17.93;;;;;;;17.50;64.89;99639.88;6877437;28;20285;-78
2022/10/03 02:15:28;;;;;;;23.13;17.60;;;;;;;17.27;65.49;99628.78;6878354;28;20242;-78
2022/10/03 02:18:54;;;;;;;22.80;17.27;;;;;;;17.50;65.02;99639.88;6862738;28;20241;-78
2022/10/03 02:22:30;;;;;;;25.43;17.90;;;;;;;17.33;65.46;99649.69;6863156;28;20290;-79
2022/10/03 02:26:00;;;;;;;24.93;17.33;;;;;;;17.20;65.33;99619.03;6863010;28;20280;-79
2022/10/03 02:29:33;;;;;;;23.80;16.83;;;;;;;17.54;64.78;99649.25;6862865;28;20620;-78
2022/10/03 02:33:25;;;;;;;25.23;18.23;;;;;;;17.57;64.78;99650.69;6863121;28;20225;-79
2022/10/03 02:37:14;;;;;;;25.10;17.00;;;;;;;17.60;64.71;99647.50;6975081;28;20204;-78
2022/10/03 02:41:10;;;;;;;22.97;16.37;;;;;;;17.62;64.86;99640.75;6974529;28;20257;-78
2022/10/03 02:44:53;;;;;;;23.63;17.37;;;;;;;17.51;64.93;99649.69;6974726;28;20240;-78
2022/10/03 02:48:42;;;;;;;23.77;17.83;;;;;;;17.51;65.02;99657.06;6973896;28;20306;-78
2022/10/03 02:52:24;;;;;;;23.40;17.37;;;;;;;17.49;64.70;99640.94;6975164;28;20207;-79
2022/10/03 02:56:03;;;;;;;22.40;16.53;;;;;;;17.60;64.63;99647.50;6934253;28;20291;-78
2022/10/03 02:59:45;;;;;;;24.13;16.90;;;;;;;17.47;64.87;99653.97;6974081;28;20238;-78
2022/10/03 03:03:33;;;;;;;19.80;16.03;;;;;;;17.53;64.77;99641.31;6974660;28;20224;-79
2022/10/03 03:07:25;;;;;;;22.83;16.07;;;;;;;17.68;64.39;99650.75;6975214;28;20190;-79
2022/10/03 03:11:07;;;;;;;20.87;16.47;;;;;;;17.40;64.61;99644.19;6954122;28;20578;-79
2022/10/03 03:15:01;;;;;;;19.87;16.17;;;;;;;17.51;64.84;99646.97;6983835;28;20183;-78
2022/10/03 03:18:31;;;;;;;19.43;16.50;;;;;;;17.33;64.44;99643.41;6979391;28;20731;-79
2022/10/03 03:21:56;;;;;;;23.07;17.13;;;;;;;17.42;64.94;99642.91;6974417;28;20192;-79
2022/10/03 03:25:35;;;;;;;23.33;16.43;;;;;;;17.43;64.96;99633.66;6973919;28;20215;-79
2022/10/03 03:29:06;;;;;;;23.50;16.27;;;;;;;17.26;64.59;99620.84;6973562;28;20230;-79
2022/10/03 03:32:38;;;;;;;19.57;15.10;;;;;;;17.47;64.19;99648.53;6973158;28;20324;-79
2022/10/03 03:36:06;;;;;;;20.07;16.00;;;;;;;17.41;64.09;99608.53;6973935;28;20225;-78
2022/10/03 03:39:47;;;;;;;18.77;15.93;;;;;;;17.42;64.33;99633.88;6973383;28;20718;-79
2022/10/03 03:43:23;;;;;;;20.67;16.10;;;;;;;17.45;64.34;99639.72;6974485;28;20217;-79
2022/10/03 03:47:00;;;;;;;18.57;15.20;;;;;;;17.33;64.19;99627.06;6996072;28;20247;-79
2022/10/03 03:50:31;;;;;;;20.57;16.33;;;;;;;17.27;64.59;99634.25;7000488;28;20292;-79
2022/10/03 03:54:26;;;;;;;21.47;15.70;;;;;;;17.07;64.92;99630.06;7001327;28;20235;-79
2022/10/03 03:58:00;;;;;;;21.87;15.77;;;;;;;17.06;64.93;99634.72;6997239;28;20251;-78
2022/10/03 04:01:48;;;;;;;24.13;17.97;;;;;;;17.32;64.48;99648.03;7001432;28;20187;-79
2022/10/03 04:05:20;;;;;;;23.60;16.00;;;;;;;17.33;64.63;99649.69;7000539;28;20215;-78
2022/10/03 04:09:01;;;;;;;21.97;15.60;;;;;;;17.35;64.64;99649.47;6998383;28;20243;-78
2022/10/03 04:12:32;;;;;;;21.60;17.13;;;;;;;17.47;64.46;99661.31;7000602;28;20226;-79
2022/10/03 04:16:11;;;;;;;21.53;15.27;;;;;;;17.45;64.37;99668.91;7000608;28;20196;-78
2022/10/03 04:19:43;;;;;;;24.13;17.43;;;;;;;17.41;64.29;99663.06;6998900;28;20701;-78
2022/10/03 04:23:12;;;;;;;23.53;16.73;;;;;;;17.38;64.37;99663.50;7000021;28;20192;-78
2022/10/03 04:26:50;;;;;;;25.77;16.93;;;;;;;17.50;64.50;99653.50;6999572;28;20273;-78
2022/10/03 04:30:14;;;;;;;21.90;17.23;;;;;;;17.48;64.55;99665.69;6999317;28;20710;-79
2022/10/03 04:33:45;;;;;;;23.23;16.97;;;;;;;17.45;64.51;99636.19;7000011;28;20211;-78
2022/10/03 04:37:26;;;;;;;23.20;17.40;;;;;;;17.39;64.91;99662.44;6999885;28;20264;-79
2022/10/03 04:40:55;;;;;;;23.47;17.73;;;;;;;17.33;64.94;99646.97;6999698;28;20183;-79
2022/10/03 04:44:30;;;;;;;38.10;28.87;;;;;;;17.56;64.62;99665.38;7004147;28;20201;-78
2022/10/03 04:47:53;;;;;;;29.93;22.67;;;;;;;17.64;64.31;99665.09;7003555;28;20215;-80
2022/10/03 04:51:20;;;;;;;23.97;17.60;;;;;;;17.81;63.81;99669.66;7003465;28;20717;-79
2022/10/03 04:54:49;;;;;;;26.67;17.80;;;;;;;17.71;63.76;99666.66;7000164;28;20273;-79
2022/10/03 04:58:21;;;;;;;27.40;17.77;;;;;;;17.49;64.11;99645.53;6993191;28;20580;-78
2022/10/03 05:01:45;;;;;;;29.87;17.03;;;;;;;17.69;63.73;99665.22;7001921;28;20197;-78
2022/10/03 05:05:26;;;;;;;24.73;17.33;;;;;;;17.66;63.80;99671.13;7003001;28;20726;-79
2022/10/03 05:08:54;;;;;;;22.63;16.47;;;;;;;17.44;64.34;99668.03;7001602;28;20229;-79
2022/10/03 05:12:27;;;;;;;25.90;17.23;;;;;;;17.26;64.94;99669.91;6995802;28;20215;-78
2022/10/03 05:15:55;;;;;;;23.67;16.73;;;;;;;17.42;64.86;99683.81;6998043;28;20217;-78
2022/10/03 05:19:40;;;;;;;26.53;18.70;;;;;;;17.38;64.72;99663.50;7004093;28;20230;-79
2022/10/03 05:23:12;;;;;;;26.60;18.77;;;;;;;17.45;64.62;99677.88;7001195;28;20195;-79
2022/10/03 05:26:41;;;;;;;26.27;19.87;;;;;;;17.38;64.94;99684.47;7004733;28;20190;-79
2022/10/03 05:30:08;;;;;;;28.00;18.67;;;;;;;17.32;64.80;99669.00;7004221;28;20363;-78
2022/10/03 05:33:38;;;;;;;26.63;19.70;;;;;;;17.43;64.70;99690.94;7005264;28;20551;-78
2022/10/03 05:37:29;;;;;;;28.93;21.27;;;;;;;17.44;64.83;99689.84;7005365;28;20199;-79
2022/10/03 05:41:01;;;;;;;25.43;19.63;;;;;;;17.10;65.15;99656.88;7003815;28;20298;-79
2022/10/03 05:44:33;;;;;;;27.17;18.87;;;;;;;17.43;65.42;99696.38;6989618;28;20216;-79
2022/10/03 05:48:10;;;;;;;28.23;19.20;;;;;;;17.42;64.71;99682.97;7003833;28;20230;-78
2022/10/03 05:51:53;;;;;;;26.30;17.67;;;;;;;17.54;64.27;99702.97;7004190;28;20272;-79
2022/10/03 05:55:29;;;;;;;27.63;18.87;;;;;;;17.40;64.44;99690.56;7004001;28;20309;-78
2022/10/03 05:59:19;;;;;;;28.10;18.73;;;;;;;17.43;64.46;99717.34;7004270;28;20230;-79
2022/10/03 06:03:14;;;;;;;28.37;19.27;;;;;;;17.17;64.58;99725.78;7004184;28;20202;-78
2022/10/03 06:06:48;;;;;;;22.30;17.13;;;;;;;17.01;65.01;99710.84;7004759;28;20344;-80
2022/10/03 06:10:39;;;;;;;21.23;16.60;;;;;;;17.28;64.63;99709.50;6994850;28;20317;-78
2022/10/03 06:14:15;;;;;;;21.77;17.50;;;;;;;17.28;64.29;99704.03;6998769;28;20264;-79
2022/10/03 06:17:56;;;;;;;27.83;18.27;;;;;;;17.37;64.82;99718.22;7004035;28;20228;-80
2022/10/03 06:21:44;;;;;;;27.03;17.60;;;;;;;17.12;65.42;99747.41;7005577;28;20631;-78
2022/10/03 06:25:17;;;;;;;21.37;17.03;;;;;;;17.05;65.20;99736.56;7008210;28;20203;-80
2022/10/03 06:29:02;;;;;;;20.70;16.50;;;;;;;16.99;64.55;99682.16;7004513;28;20263;-81
2022/10/03 06:33:05;;;;;;;19.57;15.70;;;;;;;17.66;63.25;99748.34;7004269;28;20353;-81
2022/10/03 06:36:48;;;;;;;22.10;15.90;;;;;;;17.70;63.43;99752.25;7003721;28;20289;-79
2022/10/03 06:41:01;;;;;;;23.80;15.53;;;;;;;17.71;63.19;99750.38;6974881;28;20262;-78
2022/10/03 06:44:31;;;;;;;20.57;15.67;;;;;;;17.71;61.95;99755.84;6891354;28;20228;-80
2022/10/03 06:48:11;;;;;;;22.30;15.80;;;;;;;17.55;62.80;99765.47;6917702;28;20708;-80
2022/10/03 06:52:27;;;;;;;22.83;15.93;;;;;;;17.39;62.82;99746.13;7005812;28;20249;-81
2022/10/03 06:56:18;;;;;;;21.20;16.47;;;;;;;17.27;63.79;99759.63;6979428;28;20250;-81
2022/10/03 07:00:14;;;;;;;20.83;14.93;;;;;;;16.77;64.87;99738.94;6999096;28;20234;-79
2022/10/03 07:04:04;;;;;;;19.47;14.20;;;;;;;16.88;64.44;99775.50;6978412;28;20260;-79
2022/10/03 07:07:56;;;;;;;24.60;16.90;;;;;;;17.23;63.88;99776.66;6979104;28;20273;-80
2022/10/03 07:11:35;;;;;;;22.57;15.57;;;;;;;16.58;64.90;99760.88;6938833;28;20365;-81
2022/10/03 07:15:21;;;;;;;24.17;16.63;;;;;;;16.77;65.08;99787.97;6980021;28;20267;-80
2022/10/03 07:19:02;;;;;;;25.80;17.00;;;;;;;17.12;63.73;99782.84;6977423;28;20239;-80
2022/10/03 07:22:47;;;;;;;25.27;16.90;;;;;;;17.08;63.30;99790.63;6978259;28;20719;-81
2022/10/03 07:26:36;;;;;;;24.17;17.47;;;;;;;17.11;64.36;99786.63;6978458;28;20905;-80
2022/10/03 07:30:08;;;;;;;27.83;18.30;;;;;;;17.16;64.35;99795.78;6976495;28;20247;-80
2022/10/03 07:34:06;;;;;;;24.70;17.87;;;;;;;17.28;63.98;99799.47;6978249;28;20305;-81
2022/10/03 07:41:24;;;;;;;23.90;17.40;;;;;;;17.59;62.30;99809.47;6985212;28;20185;-81
2022/10/03 07:45:17;;;;;;;22.37;16.97;;;;;;;17.79;61.36;99818.25;7015821;28;20341;-81
2022/10/03 07:48:56;;;;;;;24.77;16.23;;;;;;;17.70;61.82;99814.19;7030038;28;20277;-81
2022/10/03 07:52:37;;;;;;;20.33;14.90;;;;;;;17.75;61.63;99806.16;7034736;28;20211;-81
2022/10/03 07:56:06;;;;;;;24.97;16.13;;;;;;;17.58;61.16;99792.25;7035103;28;20200;-81
2022/10/03 07:59:44;;;;;;;17.80;14.57;;;;;;;17.62;60.81;99785.31;7032945;28;20230;-81
2022/10/03 08:03:44;;;;;;;22.13;13.97;;;;;;;17.93;61.56;99812.44;7034399;28;20217;-80
2022/10/03 08:07:22;;;;;;;19.53;13.90;;;;;;;17.67;60.21;99820.94;7030304;28;20298;-80
2022/10/03 08:11:20;;;;;;;17.73;14.93;;;;;;;17.87;61.30;99813.34;7032355;28;20702;-81
2022/10/03 08:15:03;;;;;;;18.70;15.00;;;;;;;17.73;60.03;99819.16;7034404;28;20195;-80
2022/10/03 08:18:36;;;;;;;16.30;13.73;;;;;;;17.78;60.96;99817.44;7038003;28;20314;-80
2022/10/03 08:22:07;;;;;;;20.43;14.33;;;;;;;18.05;60.44;99826.16;7041374;28;20191;-79
2022/10/03 08:25:40;;;;;;;18.43;14.33;;;;;;;18.07;60.06;99821.31;7039880;28;20669;-80
2022/10/03 08:29:16;;;;;;;18.43;12.67;;;;;;;18.00;59.42;99823.28;7038036;28;20372;-81
2022/10/03 08:32:59;;;;;;;14.30;11.80;;;;;;;18.03;58.97;99817.34;7038352;28;20231;-80
2022/10/03 08:36:41;;;;;;;16.50;11.50;;;;;;;18.43;58.58;99834.94;7036514;28;20188;-81
2022/10/03 08:40:52;;;;;;;14.70;11.27;;;;;;;18.05;58.21;99807.06;7036238;28;20231;-81
2022/10/03 08:44:55;;;;;;;17.20;11.23;;;;;;;18.34;58.51;99836.34;7035835;28;20209;-80
2022/10/03 08:48:40;;;;;;;18.20;12.50;;;;;;;18.00;57.76;99810.47;7035803;28;20255;-80
2022/10/03 08:52:15;;;;;;;18.50;12.50;;;;;;;18.07;57.71;99822.16;7036005;28;20210;-81
2022/10/03 08:55:54;;;;;;;17.90;11.13;;;;;;;18.44;57.19;99831.97;7039853;28;20217;-81
2022/10/03 08:59:51;;;;;;;17.10;9.83;;;;;;;17.83;56.44;99825.78;7039408;28;20234;-81
2022/10/03 09:03:48;;;;;;;14.40;10.80;;;;;;;18.26;57.13;99825.66;7026839;28;20269;-81
2022/10/03 09:07:19;;;;;;;13.57;9.73;;;;;;;18.52;57.28;99820.72;7002064;28;20261;-81
2022/10/03 09:11:13;;;;;;;13.67;9.23;;;;;;;18.17;55.27;99816.16;7023090;28;20230;-81
2022/10/03 09:14:48;;;;;;;12.43;9.83;;;;;;;18.72;55.54;99826.75;7020404;28;20249;-81
2022/10/03 09:18:42;;;;;;;10.83;6.83;;;;;;;17.88;54.14;99828.66;7008724;28;20315;-81
2022/10/03 09:22:16;;;;;;;10.63;7.03;;;;;;;18.48;53.41;99810.50;7013581;28;20324;-81
2022/10/03 09:25:56;;;;;;;15.17;7.93;;;;;;;19.15;54.60;99821.00;7008631;28;20194;-81
2022/10/03 09:29:33;;;;;;;14.00;8.67;;;;;;;19.58;50.78;99698.47;7004835;28;20251;-81
2022/10/03 09:33:24;;;;;;;7.70;6.30;;;;;;;20.01;50.32;99787.25;7007528;28;20304;-81
2022/10/03 09:37:20;;;;;;;10.10;6.20;;;;;;;20.82;48.68;99817.09;7006786;28;20202;-81
2022/10/03 09:41:03;;;;;;;10.63;5.90;;;;;;;20.86;48.96;99799.09;7005852;28;20192;-82
2022/10/03 09:45:07;;;;;;;7.17;4.90;;;;;;;21.09;47.11;99797.03;6987708;28;20297;-82
2022/10/03 09:49:01;;;;;;;7.87;4.83;;;;;;;20.67;46.37;99811.31;6977879;28;20301;-82
2022/10/03 09:52:37;;;;;;;8.27;4.70;;;;;;;20.67;46.28;99810.25;6978411;28;20214;-82
2022/10/03 09:56:24;;;;;;;9.43;4.07;;;;;;;20.06;45.80;99787.41;6978543;28;20537;-81
2022/10/03 10:00:11;;;;;;;10.30;4.73;;;;;;;20.45;47.31;99802.16;6977472;28;20306;-81
2022/10/03 10:04:05;;;;;;;10.17;4.33;;;;;;;19.73;46.16;99792.66;6975206;28;20494;-82
2022/10/03 10:07:45;;;;;;;8.67;4.07;;;;;;;20.24;46.06;99795.44;6977943;28;20244;-82
2022/10/03 10:11:20;;;;;;;8.37;4.40;;;;;;;19.95;46.49;99768.22;6975996;28;20343;-82
2022/10/03 10:15:04;;;;;;;8.23;4.27;;;;;;;21.13;42.26;99794.63;6977130;28;20291;-82
2022/10/03 10:18:54;;;;;;;7.53;4.20;;;;;;;21.88;42.14;99794.72;6977123;28;20234;-81
2022/10/03 10:22:31;;;;;;;9.17;4.47;;;;;;;22.18;42.29;99795.13;6976565;28;20222;-81
2022/10/03 10:26:33;;;;;;;9.97;4.37;;;;;;;21.90;42.38;99800.78;6976282;28;20272;-81
2022/10/03 10:30:11;;;;;;;6.93;3.80;;;;;;;22.07;41.53;99789.78;6976057;28;20325;-82
2022/10/03 10:34:07;;;;;;;10.07;5.07;;;;;;;22.73;42.77;99806.78;6976305;28;20313;-81
2022/10/03 10:38:08;;;;;;;10.10;5.13;;;;;;;22.49;43.91;99815.59;6962422;28;20301;-83
2022/10/03 10:42:00;;;;;;;11.47;5.10;;;;;;;21.19;45.40;99809.00;6935595;28;20210;-81
2022/10/03 10:45:39;;;;;;;8.40;4.80;;;;;;;20.25;45.19;99815.41;6976988;28;20198;-81
2022/10/03 10:49:56;;;;;;;9.27;4.97;;;;;;;19.45;48.28;99816.34;6975597;28;20223;-81
2022/10/03 10:54:05;;;;;;;10.50;5.43;;;;;;;20.20;49.46;99821.63;6958772;28;20227;-82
2022/10/03 10:57:57;;;;;;;7.63;4.50;;;;;;;20.64;46.04;99804.41;6885447;28;20206;-81
2022/10/03 11:01:56;;;;;;;8.63;4.30;;;;;;;22.17;44.50;99820.09;6977014;28;20245;-81
2022/10/03 11:06:08;;;;;;;12.90;4.87;;;;;;;22.03;43.19;99822.41;6985985;28;20374;-81
2022/10/03 11:09:56;;;;;;;7.40;4.63;;;;;;;21.51;44.38;99818.31;7002148;28;20310;-81
2022/10/03 11:13:54;;;;;;;7.80;4.83;;;;;;;19.98;48.13;99804.16;6972794;28;20230;-81
2022/10/03 11:17:43;;;;;;;9.17;4.67;;;;;;;20.39;46.65;99808.59;6993198;28;20213;-81
2022/10/03 11:21:41;;;;;;;8.67;4.20;;;;;;;20.89;45.39;99799.44;6986652;28;20201;-82
2022/10/03 11:25:52;;;;;;;12.93;4.30;;;;;;;20.67;45.95;99796.53;7003462;28;20348;-82
2022/10/03 11:29:59;;;;;;;10.40;4.33;;;;;;;21.89;43.15;99759.88;6973272;28;20237;-80
2022/10/03 11:34:07;;;;;;;6.33;4.60;;;;;;;21.72;43.86;99794.78;6960546;28;20225;-83
2022/10/03 11:37:36;;;;;;;9.03;4.37;;;;;;;20.29;47.14;99798.25;7003278;28;20194;-81
2022/10/03 11:41:02;;;;;;;10.93;4.77;;;;;;;20.43;46.80;99776.88;7003831;28;20200;-82
2022/10/03 11:44:26;;;;;;;9.77;4.53;;;;;;;21.12;46.34;99793.81;7004631;28;20192;-81
2022/10/03 11:47:56;;;;;;;8.50;4.53;;;;;;;21.31;46.10;99800.72;7003439;28;20264;-81
2022/10/03 11:51:36;;;;;;;8.50;4.97;;;;;;;21.22;46.51;99802.19;7004032;28;20233;-80
2022/10/03 11:55:09;;;;;;;7.47;4.40;;;;;;;20.92;45.22;99795.38;7010279;28;20261;-81
2022/10/03 11:58:35;;;;;;;10.10;4.20;;;;;;;21.37;43.74;99794.22;7008868;28;20280;-81
2022/10/03 12:02:11;;;;;;;8.87;3.90;;;;;;;21.28;45.21;99790.22;6998268;28;20289;-82
2022/10/03 12:05:45;;;;;;;9.67;4.57;;;;;;;21.19;44.61;99775.28;6992559;28;20290;-82
2022/10/03 12:09:15;;;;;;;8.77;4.37;;;;;;;20.38;44.56;99783.09;7006656;28;20232;-82
2022/10/03 12:12:42;;;;;;;8.57;4.07;;;;;;;21.33;43.54;99787.56;7008514;28;20248;-82
2022/10/03 12:16:06;;;;;;;6.30;3.37;;;;;;;20.92;42.75;99757.81;7008436;28;20198;-81
2022/10/03 12:19:31;;;;;;;9.40;4.27;;;;;;;21.04;42.16;99787.91;7008170;28;20364;-81
2022/10/03 12:22:56;;;;;;;7.93;3.87;;;;;;;20.88;42.96;99783.22;7008992;28;20714;-81
2022/10/03 12:26:22;;;;;;;8.77;4.33;;;;;;;19.86;44.63;99775.97;7009461;28;20276;-80
2022/10/03 12:29:57;;;;;;;8.50;4.20;;;;;;;20.67;43.67;99772.94;7008320;28;20249;-81
2022/10/03 12:33:31;;;;;;;7.00;3.50;;;;;;;20.08;42.18;99757.00;7008687;28;20231;-81
2022/10/03 12:37:07;;;;;;;5.30;3.27;;;;;;;21.08;41.06;99754.25;7009091;28;20200;-81
2022/10/03 12:40:31;;;;;;;9.53;3.60;;;;;;;20.77;39.92;99726.53;7016684;28;20224;-81
2022/10/03 12:44:08;;;;;;;6.20;3.50;;;;;;;20.42;41.46;99739.59;7035324;28;20295;-81
2022/10/03 12:47:36;;;;;;;6.07;3.67;;;;;;;21.28;39.95;99741.69;7035836;28;20330;-82
2022/10/03 12:51:02;;;;;;;6.10;3.60;;;;;;;21.90;40.56;99743.13;7020818;28;20777;-81
2022/10/03 12:54:37;;;;;;;7.83;3.10;;;;;;;22.10;38.79;99735.16;6986106;28;20692;-82
2022/10/03 12:58:03;;;;;;;6.27;2.90;;;;;;;22.25;38.50;99735.31;7007130;28;20249;-82
2022/10/03 13:01:29;;;;;;;5.37;3.00;;;;;;;22.15;38.19;99737.13;7007305;28;20202;-79
2022/10/03 13:05:24;;;;;;;6.90;3.20;;;;;;;22.45;38.16;99734.75;7006198;28;20435;-79
2022/10/03 13:08:54;;;;;;;5.20;2.70;;;;;;;22.09;37.30;99711.53;7003491;28;20715;-80
2022/10/03 13:12:22;;;;;;;6.23;3.00;;;;;;;22.18;38.54;99734.69;7007363;28;20229;-79
2022/10/03 13:15:55;;;;;;;3.87;2.80;;;;;;;22.36;37.25;99722.53;7011107;28;20196;-79
2022/10/03 13:19:20;;;;;;;5.80;2.73;;;;;;;21.98;38.42;99728.97;6999965;28;20229;-80
2022/10/03 13:22:46;;;;;;;6.53;3.10;;;;;;;21.65;38.87;99722.75;7009658;28;20201;-81
2022/10/03 13:26:12;;;;;;;10.37;3.50;;;;;;;21.10;39.36;99688.19;7007654;28;20190;-80
2022/10/03 13:29:39;;;;;;;5.17;2.90;;;;;;;22.03;38.09;99722.69;7006450;28;20233;-81
2022/10/03 13:33:02;;;;;;;8.27;3.40;;;;;;;21.53;38.02;99687.16;7007216;28;20206;-81
2022/10/03 13:36:28;;;;;;;4.33;3.00;;;;;;;21.98;37.16;99714.41;7007449;28;20292;-81
2022/10/03 13:39:52;;;;;;;6.17;2.77;;;;;;;22.16;37.12;99728.63;7006299;28;20271;-81
2022/10/03 13:43:18;;;;;;;5.80;3.10;;;;;;;21.91;37.93;99714.59;7006515;28;20296;-81
2022/10/03 13:46:44;;;;;;;5.43;2.60;;;;;;;21.91;37.40;99719.25;7015209;28;20646;-80
2022/10/03 13:50:12;;;;;;;7.43;2.90;;;;;;;22.28;37.52;99712.81;7006245;28;20234;-81
2022/10/03 13:53:52;;;;;;;8.50;3.20;;;;;;;22.46;37.20;99687.75;7006206;28;20345;-81
2022/10/03 13:57:17;;;;;;;6.33;2.67;;;;;;;21.63;37.13;99686.47;7013658;28;20193;-80
2022/10/03 14:00:51;;;;;;;5.10;2.63;;;;;;;22.06;36.72;99701.03;7006383;28;20283;-81
2022/10/03 14:04:37;;;;;;;4.60;2.73;;;;;;;22.35;35.78;99707.94;7004362;28;20214;-82
2022/10/03 14:08:08;;;;;;;4.20;2.50;;;;;;;21.17;36.69;99693.22;6978896;28;20277;-80
2022/10/03 14:11:37;;;;;;;3.37;2.60;;;;;;;20.92;37.47;99688.47;7002265;28;20296;-80
2022/10/03 14:15:20;;;;;;;4.07;2.60;;;;;;;21.89;36.17;99699.47;7007196;28;20296;-80
2022/10/03 14:18:49;;;;;;;6.83;3.03;;;;;;;21.71;37.44;99702.53;7006155;28;20214;-81
2022/10/03 14:22:28;;;;;;;5.80;3.17;;;;;;;21.11;37.51;99651.44;7007752;28;20347;-83
2022/10/03 14:25:59;;;;;;;7.17;3.20;;;;;;;20.87;39.44;99694.63;6979478;28;20255;-78
2022/10/03 14:29:24;;;;;;;5.87;3.27;;;;;;;21.10;40.04;99696.41;6981666;28;20213;-82
2022/10/03 14:33:02;;;;;;;7.57;3.33;;;;;;;21.14;39.41;99701.94;7011330;28;20220;-82
2022/10/03 14:36:32;;;;;;;6.67;3.40;;;;;;;21.33;39.77;99648.50;7016662;28;20216;-82
2022/10/03 14:40:08;;;;;;;7.27;3.43;;;;;;;21.46;39.01;99686.53;7002361;28;20249;-81
2022/10/03 14:43:34;;;;;;;6.77;3.07;;;;;;;21.38;39.40;99665.03;7001480;28;20672;-82
2022/10/03 14:46:58;;;;;;;6.90;3.07;;;;;;;21.20;38.49;99691.91;6998188;28;20210;-81
2022/10/03 14:50:25;;;;;;;4.67;2.70;;;;;;;20.85;39.11;99658.44;7005168;28;20281;-82
2022/10/03 14:53:48;;;;;;;4.87;2.93;;;;;;;21.23;38.73;99673.03;7005988;28;20244;-81
2022/10/03 14:57:18;;;;;;;6.90;2.90;;;;;;;21.12;39.15;99673.16;7006009;28;20289;-81
2022/10/03 15:00:44;;;;;;;5.67;3.23;;;;;;;21.34;37.72;99683.06;7005971;28;20552;-81
2022/10/03 15:04:08;;;;;;;11.87;2.93;;;;;;;21.49;37.65;99680.50;7005835;28;20233;-82
2022/10/03 15:07:36;;;;;;;7.03;3.00;;;;;;;21.13;37.53;99679.44;7005647;28;20194;-82
2022/10/03 15:10:58;;;;;;;4.83;2.87;;;;;;;20.36;39.17;99669.38;7004782;28;20573;-81
2022/10/03 15:14:21;;;;;;;5.67;3.20;;;;;;;21.16;40.17;99676.22;7006100;28;20682;-82
2022/10/03 15:17:48;;;;;;;8.93;3.67;;;;;;;21.15;40.46;99678.09;7006671;28;20224;-83
2022/10/03 15:21:14;;;;;;;5.67;2.87;;;;;;;20.54;41.27;99641.72;7006123;28;20290;-82
2022/10/03 15:24:39;;;;;;;4.67;3.20;;;;;;;20.76;41.10;99607.03;7005725;28;20628;-83
2022/10/03 15:28:05;;;;;;;7.57;2.93;;;;;;;21.42;40.10;99666.16;7004252;28;20311;-81
2022/10/03 15:31:33;;;;;;;4.83;3.00;;;;;;;21.57;40.00;99660.88;7006233;28;20275;-82
2022/10/03 15:34:59;;;;;;;7.03;3.40;;;;;;;19.86;40.51;99589.03;7005658;28;20255;-81
2022/10/03 15:38:23;;;;;;;6.93;3.27;;;;;;;20.53;40.26;99645.56;7006583;28;20743;-83
2022/10/03 15:41:53;;;;;;;10.63;3.50;;;;;;;21.12;40.62;99666.81;7005237;28;20205;-82
2022/10/03 15:45:19;;;;;;;6.07;3.43;;;;;;;20.99;40.43;99650.72;7005441;28;20190;-82
2022/10/03 15:48:42;;;;;;;5.30;3.57;;;;;;;20.63;41.38;99637.50;7005297;28;20233;-82
2022/10/03 15:52:13;;;;;;;5.93;3.07;;;;;;;20.78;39.70;99658.59;7007572;28;20217;-81
2022/10/03 15:55:40;;;;;;;5.10;2.90;;;;;;;20.65;40.58;99649.03;7012959;28;20210;-81
2022/10/03 15:59:07;;;;;;;4.53;2.60;;;;;;;21.17;40.12;99654.00;7014375;28;20594;-82
2022/10/03 16:02:33;;;;;;;3.17;2.87;;;;;;;21.06;39.89;99676.91;7000250;28;20232;-81
2022/10/03 16:06:02;;;;;;;6.53;3.43;;;;;;;20.44;40.35;99647.88;6997904;28;20272;-80
2022/10/03 16:09:27;;;;;;;4.50;2.73;;;;;;;20.77;39.31;99652.53;7004689;28;20350;-81
2022/10/03 16:12:56;;;;;;;6.57;3.20;;;;;;;20.14;40.20;99619.97;7013325;28;20267;-81
2022/10/03 16:16:22;;;;;;;5.60;3.70;;;;;;;20.10;40.94;99618.78;7004392;28;20209;-82
2022/10/03 16:19:51;;;;;;;59.57;23.57;;;;;;;20.61;41.08;99658.84;7017978;28;20225;-80
2022/10/03 16:23:17;;;;;;;5.20;3.20;;;;;;;20.60;40.24;99659.91;7002820;28;20209;-82
2022/10/03 16:26:48;;;;;;;3.97;3.10;;;;;;;19.77;41.58;99640.59;7006049;28;20201;-83
2022/10/03 16:30:21;;;;;;;5.23;3.70;;;;;;;19.84;41.98;99656.84;7002573;28;20287;-80
2022/10/03 16:33:49;;;;;;;6.63;4.37;;;;;;;20.03;43.24;99661.88;7005109;28;20221;-81
2022/10/03 16:37:17;;;;;;;8.07;5.30;;;;;;;20.24;42.61;99669.44;7005863;28;20209;-83
2022/10/03 16:40:39;;;;;;;6.67;3.57;;;;;;;20.31;42.23;99630.94;7010903;28;20403;-80
2022/10/03 16:44:02;;;;;;;8.47;3.70;;;;;;;19.72;40.93;99642.38;7009957;28;20288;-81
2022/10/03 16:47:34;;;;;;;4.40;3.17;;;;;;;20.01;40.83;99655.00;7007858;28;20213;-80
2022/10/03 16:50:55;;;;;;;6.13;4.53;;;;;;;19.83;41.06;99573.09;7009254;28;20202;-81
2022/10/03 16:54:19;;;;;;;9.83;4.57;;;;;;;19.83;43.82;99657.94;7008997;28;20323;-81